To NAV CANADA Home Page Login to a new session Search on AWWS site Feedback and Comments Disclaimer Vers la page française équivalente Tips FAQ What's new on the site To the Forecasts and Observations / NOTAM section To "File a Flight Plan" website Publications and other links Update of the User's profile FIC Telephone Numbers My Weather Data Folder Route Weather Data Regional Weather Data Local Weather Data To the Forecasts and Observations / NOTAM section
Request Generated 07/26/2016 at 08:20:20 UTC . Weather information available at that time is displayed.

METAR/TAF

OTTAWA/MACDONALD-CARTIER INTL/ON    

METAR CYOW 260800Z 25009KT 15SM SKC 18/16 A2978 RMK SLP085 DENSITY
ALT 1000FT=
METAR CYOW 260700Z 26008KT 15SM FEW090 19/16 A2977 RMK AC1 AC TR
SLP080 DENSITY ALT 1100FT=
METAR CYOW 260600Z 27008KT 15SM FEW090 21/16 A2976 RMK AC1 AC TR
SLP077 DENSITY ALT 1200FT=

TAF CYOW 260538Z 2606/2706 25008KT P6SM SCT080
FM261300 30010KT P6SM BKN020
FM261500 30012KT P6SM BKN030
FM262000 30010KT P6SM FEW040
BECMG 2622/2624 VRB03KT
RMK NXT FCST BY 260900Z=
Your time UTC time
Weather data provided by Environment Canada and NAV CANADA